sensor_id;sensor_type;location;lat;lon;timestamp;P1;durP1;ratioP1;P2;durP2;ratioP2
15383;SDS011;7790;53.022;12.968;2022-08-19T00:01:08;7.70;;;7.10;;
15383;SDS011;7790;53.022;12.968;2022-08-19T00:05:09;7.40;;;6.80;;
15383;SDS011;7790;53.022;12.968;2022-08-19T00:09:12;8.07;;;7.47;;
15383;SDS011;7790;53.022;12.968;2022-08-19T00:13:14;8.03;;;7.43;;
15383;SDS011;7790;53.022;12.968;2022-08-19T00:17:16;7.90;;;7.30;;
15383;SDS011;7790;53.022;12.968;2022-08-19T00:21:17;7.90;;;7.20;;
15383;SDS011;7790;53.022;12.968;2022-08-19T00:25:18;8.20;;;7.60;;
15383;SDS011;7790;53.022;12.968;2022-08-19T00:29:22;7.87;;;7.27;;
15383;SDS011;7790;53.022;12.968;2022-08-19T00:33:25;8.40;;;7.70;;
15383;SDS011;7790;53.022;12.968;2022-08-19T00:37:26;7.90;;;7.30;;
15383;SDS011;7790;53.022;12.968;2022-08-19T00:41:27;8.60;;;8.00;;
15383;SDS011;7790;53.022;12.968;2022-08-19T00:45:29;7.87;;;7.17;;
15383;SDS011;7790;53.022;12.968;2022-08-19T00:53:42;8.00;;;7.30;;
15383;SDS011;7790;53.022;12.968;2022-08-19T00:57:45;8.97;;;8.13;;
15383;SDS011;7790;53.022;12.968;2022-08-19T01:01:50;8.50;;;7.80;;
15383;SDS011;7790;53.022;12.968;2022-08-19T01:05:52;9.03;;;8.13;;
15383;SDS011;7790;53.022;12.968;2022-08-19T01:09:55;9.50;;;7.90;;
15383;SDS011;7790;53.022;12.968;2022-08-19T01:13:56;8.73;;;7.97;;
15383;SDS011;7790;53.022;12.968;2022-08-19T01:18:03;8.60;;;7.80;;
15383;SDS011;7790;53.022;12.968;2022-08-19T01:22:10;9.27;;;8.47;;
15383;SDS011;7790;53.022;12.968;2022-08-19T01:26:21;8.30;;;7.70;;
15383;SDS011;7790;53.022;12.968;2022-08-19T01:30:24;8.90;;;8.20;;
15383;SDS011;7790;53.022;12.968;2022-08-19T01:34:27;8.70;;;8.00;;
15383;SDS011;7790;53.022;12.968;2022-08-19T01:38:28;9.50;;;8.70;;
15383;SDS011;7790;53.022;12.968;2022-08-19T01:42:31;10.10;;;9.20;;
15383;SDS011;7790;53.022;12.968;2022-08-19T01:46:32;9.73;;;8.83;;
15383;SDS011;7790;53.022;12.968;2022-08-19T01:50:34;10.43;;;9.43;;
15383;SDS011;7790;53.022;12.968;2022-08-19T01:54:35;9.97;;;9.17;;
15383;SDS011;7790;53.022;12.968;2022-08-19T01:58:37;9.73;;;8.97;;
15383;SDS011;7790;53.022;12.968;2022-08-19T02:02:42;9.73;;;8.93;;
15383;SDS011;7790;53.022;12.968;2022-08-19T02:06:43;9.87;;;9.07;;
15383;SDS011;7790;53.022;12.968;2022-08-19T02:10:44;10.53;;;9.73;;
15383;SDS011;7790;53.022;12.968;2022-08-19T02:14:45;10.13;;;9.33;;
15383;SDS011;7790;53.022;12.968;2022-08-19T02:18:46;10.03;;;9.10;;
15383;SDS011;7790;53.022;12.968;2022-08-19T02:22:50;11.17;;;10.27;;
15383;SDS011;7790;53.022;12.968;2022-08-19T02:26:51;10.93;;;9.90;;
15383;SDS011;7790;53.022;12.968;2022-08-19T02:30:52;10.13;;;9.43;;
15383;SDS011;7790;53.022;12.968;2022-08-19T02:34:53;11.27;;;10.30;;
15383;SDS011;7790;53.022;12.968;2022-08-19T02:38:54;9.87;;;9.17;;
15383;SDS011;7790;53.022;12.968;2022-08-19T02:42:55;11.20;;;10.30;;
15383;SDS011;7790;53.022;12.968;2022-08-19T02:46:56;14.00;;;10.77;;
15383;SDS011;7790;53.022;12.968;2022-08-19T02:50:57;12.87;;;10.97;;
15383;SDS011;7790;53.022;12.968;2022-08-19T02:54:58;11.87;;;10.73;;
15383;SDS011;7790;53.022;12.968;2022-08-19T02:58:59;12.60;;;11.23;;
15383;SDS011;7790;53.022;12.968;2022-08-19T03:03:00;13.57;;;10.40;;
15383;SDS011;7790;53.022;12.968;2022-08-19T03:07:01;11.63;;;10.50;;
15383;SDS011;7790;53.022;12.968;2022-08-19T03:11:02;11.83;;;10.63;;
15383;SDS011;7790;53.022;12.968;2022-08-19T03:15:04;11.40;;;10.30;;
15383;SDS011;7790;53.022;12.968;2022-08-19T03:19:07;10.37;;;9.47;;
15383;SDS011;7790;53.022;12.968;2022-08-19T03:23:08;10.93;;;9.93;;
15383;SDS011;7790;53.022;12.968;2022-08-19T03:27:09;11.47;;;10.47;;
15383;SDS011;7790;53.022;12.968;2022-08-19T03:31:11;13.27;;;11.33;;
15383;SDS011;7790;53.022;12.968;2022-08-19T03:35:14;12.03;;;10.93;;
15383;SDS011;7790;53.022;12.968;2022-08-19T03:39:15;12.43;;;11.33;;
15383;SDS011;7790;53.022;12.968;2022-08-19T03:43:16;12.90;;;11.90;;
15383;SDS011;7790;53.022;12.968;2022-08-19T03:47:17;12.43;;;11.40;;
15383;SDS011;7790;53.022;12.968;2022-08-19T03:51:28;11.73;;;10.77;;
15383;SDS011;7790;53.022;12.968;2022-08-19T03:55:31;11.60;;;10.60;;
15383;SDS011;7790;53.022;12.968;2022-08-19T03:59:33;10.50;;;9.50;;
15383;SDS011;7790;53.022;12.968;2022-08-19T04:03:35;10.63;;;9.67;;
15383;SDS011;7790;53.022;12.968;2022-08-19T04:07:36;11.47;;;10.47;;
15383;SDS011;7790;53.022;12.968;2022-08-19T04:11:38;10.03;;;9.13;;
15383;SDS011;7790;53.022;12.968;2022-08-19T04:15:50;10.57;;;9.67;;
15383;SDS011;7790;53.022;12.968;2022-08-19T04:19:51;10.30;;;9.50;;
15383;SDS011;7790;53.022;12.968;2022-08-19T04:23:52;10.43;;;9.53;;
15383;SDS011;7790;53.022;12.968;2022-08-19T04:27:54;10.43;;;9.53;;
15383;SDS011;7790;53.022;12.968;2022-08-19T04:31:55;9.40;;;8.70;;
15383;SDS011;7790;53.022;12.968;2022-08-19T04:35:57;10.67;;;9.77;;
15383;SDS011;7790;53.022;12.968;2022-08-19T04:39:58;10.40;;;9.40;;
15383;SDS011;7790;53.022;12.968;2022-08-19T04:44:19;10.33;;;9.43;;
15383;SDS011;7790;53.022;12.968;2022-08-19T04:48:21;9.73;;;8.93;;
15383;SDS011;7790;53.022;12.968;2022-08-19T04:52:26;10.07;;;9.27;;
15383;SDS011;7790;53.022;12.968;2022-08-19T04:56:27;9.43;;;8.50;;
15383;SDS011;7790;53.022;12.968;2022-08-19T05:00:28;9.53;;;8.73;;
15383;SDS011;7790;53.022;12.968;2022-08-19T05:04:29;9.73;;;8.83;;
15383;SDS011;7790;53.022;12.968;2022-08-19T05:08:34;9.97;;;9.07;;
15383;SDS011;7790;53.022;12.968;2022-08-19T05:12:36;9.43;;;8.67;;
15383;SDS011;7790;53.022;12.968;2022-08-19T05:16:38;9.20;;;8.50;;
15383;SDS011;7790;53.022;12.968;2022-08-19T05:20:40;9.63;;;8.73;;
15383;SDS011;7790;53.022;12.968;2022-08-19T05:25:04;9.93;;;8.90;;
15383;SDS011;7790;53.022;12.968;2022-08-19T05:29:12;10.47;;;9.53;;
15383;SDS011;7790;53.022;12.968;2022-08-19T05:33:15;9.57;;;8.77;;
15383;SDS011;7790;53.022;12.968;2022-08-19T05:37:16;9.63;;;8.83;;
15383;SDS011;7790;53.022;12.968;2022-08-19T05:41:17;10.00;;;9.20;;
15383;SDS011;7790;53.022;12.968;2022-08-19T05:45:18;9.30;;;8.60;;
15383;SDS011;7790;53.022;12.968;2022-08-19T05:49:22;9.93;;;9.10;;
15383;SDS011;7790;53.022;12.968;2022-08-19T05:53:23;10.70;;;9.80;;
15383;SDS011;7790;53.022;12.968;2022-08-19T05:57:23;9.93;;;9.13;;
15383;SDS011;7790;53.022;12.968;2022-08-19T06:01:25;9.53;;;8.83;;
15383;SDS011;7790;53.022;12.968;2022-08-19T06:05:26;10.57;;;9.57;;
15383;SDS011;7790;53.022;12.968;2022-08-19T06:09:27;9.83;;;8.93;;
15383;SDS011;7790;53.022;12.968;2022-08-19T06:13:28;10.80;;;9.80;;
15383;SDS011;7790;53.022;12.968;2022-08-19T06:17:29;10.83;;;9.80;;
15383;SDS011;7790;53.022;12.968;2022-08-19T06:21:30;10.93;;;9.97;;
15383;SDS011;7790;53.022;12.968;2022-08-19T06:25:31;10.57;;;9.50;;
15383;SDS011;7790;53.022;12.968;2022-08-19T06:29:32;11.17;;;10.07;;
15383;SDS011;7790;53.022;12.968;2022-08-19T06:33:35;11.50;;;10.43;;
15383;SDS011;7790;53.022;12.968;2022-08-19T06:37:37;10.27;;;9.37;;
15383;SDS011;7790;53.022;12.968;2022-08-19T06:41:39;10.30;;;9.37;;
15383;SDS011;7790;53.022;12.968;2022-08-19T06:45:48;10.83;;;9.70;;
15383;SDS011;7790;53.022;12.968;2022-08-19T06:49:55;10.57;;;9.67;;
15383;SDS011;7790;53.022;12.968;2022-08-19T06:54:00;10.63;;;9.73;;
15383;SDS011;7790;53.022;12.968;2022-08-19T06:58:02;10.97;;;9.90;;
15383;SDS011;7790;53.022;12.968;2022-08-19T07:02:04;10.13;;;9.33;;
15383;SDS011;7790;53.022;12.968;2022-08-19T07:06:07;10.30;;;9.30;;
15383;SDS011;7790;53.022;12.968;2022-08-19T07:10:15;11.03;;;9.93;;
15383;SDS011;7790;53.022;12.968;2022-08-19T07:14:17;10.13;;;9.23;;
15383;SDS011;7790;53.022;12.968;2022-08-19T07:18:20;9.83;;;8.90;;
15383;SDS011;7790;53.022;12.968;2022-08-19T07:22:21;9.80;;;9.00;;
15383;SDS011;7790;53.022;12.968;2022-08-19T07:26:27;10.43;;;9.37;;
15383;SDS011;7790;53.022;12.968;2022-08-19T07:30:30;9.87;;;9.13;;
15383;SDS011;7790;53.022;12.968;2022-08-19T07:34:31;9.43;;;8.63;;
15383;SDS011;7790;53.022;12.968;2022-08-19T07:38:37;9.57;;;8.87;;
15383;SDS011;7790;53.022;12.968;2022-08-19T07:42:42;9.23;;;8.43;;
15383;SDS011;7790;53.022;12.968;2022-08-19T07:46:44;8.87;;;8.27;;
15383;SDS011;7790;53.022;12.968;2022-08-19T07:50:47;8.73;;;7.87;;
15383;SDS011;7790;53.022;12.968;2022-08-19T07:54:48;8.20;;;7.60;;
15383;SDS011;7790;53.022;12.968;2022-08-19T07:58:50;8.60;;;7.90;;
15383;SDS011;7790;53.022;12.968;2022-08-19T08:02:52;8.00;;;7.40;;
15383;SDS011;7790;53.022;12.968;2022-08-19T08:06:53;9.00;;;8.10;;
15383;SDS011;7790;53.022;12.968;2022-08-19T08:11:13;8.43;;;7.70;;
15383;SDS011;7790;53.022;12.968;2022-08-19T08:15:19;8.47;;;7.67;;
15383;SDS011;7790;53.022;12.968;2022-08-19T08:19:20;8.83;;;8.13;;
15383;SDS011;7790;53.022;12.968;2022-08-19T08:23:23;8.30;;;7.47;;
15383;SDS011;7790;53.022;12.968;2022-08-19T08:27:25;8.43;;;7.73;;
15383;SDS011;7790;53.022;12.968;2022-08-19T08:31:31;8.30;;;7.70;;
15383;SDS011;7790;53.022;12.968;2022-08-19T08:35:33;7.73;;;7.13;;
15383;SDS011;7790;53.022;12.968;2022-08-19T08:39:34;8.17;;;7.37;;
15383;SDS011;7790;53.022;12.968;2022-08-19T08:43:37;8.00;;;7.40;;
15383;SDS011;7790;53.022;12.968;2022-08-19T08:47:45;8.20;;;7.53;;
15383;SDS011;7790;53.022;12.968;2022-08-19T08:52:12;8.23;;;7.53;;
15383;SDS011;7790;53.022;12.968;2022-08-19T08:56:20;7.73;;;7.13;;
15383;SDS011;7790;53.022;12.968;2022-08-19T09:00:22;7.90;;;7.20;;
15383;SDS011;7790;53.022;12.968;2022-08-19T09:04:27;8.90;;;8.07;;
15383;SDS011;7790;53.022;12.968;2022-08-19T09:09:12;7.80;;;7.20;;
15383;SDS011;7790;53.022;12.968;2022-08-19T09:17:15;8.70;;;8.00;;
15383;SDS011;7790;53.022;12.968;2022-08-19T09:21:16;8.10;;;7.47;;
15383;SDS011;7790;53.022;12.968;2022-08-19T09:25:18;8.73;;;8.03;;
15383;SDS011;7790;53.022;12.968;2022-08-19T09:29:22;8.93;;;8.13;;
15383;SDS011;7790;53.022;12.968;2022-08-19T09:33:23;8.93;;;8.00;;
15383;SDS011;7790;53.022;12.968;2022-08-19T09:37:24;9.27;;;8.47;;
15383;SDS011;7790;53.022;12.968;2022-08-19T09:41:25;9.67;;;8.80;;
15383;SDS011;7790;53.022;12.968;2022-08-19T09:45:27;8.60;;;7.73;;
15383;SDS011;7790;53.022;12.968;2022-08-19T09:49:28;9.10;;;8.40;;
15383;SDS011;7790;53.022;12.968;2022-08-19T09:53:29;8.87;;;8.07;;
15383;SDS011;7790;53.022;12.968;2022-08-19T09:57:30;9.03;;;8.23;;
15383;SDS011;7790;53.022;12.968;2022-08-19T10:01:31;9.90;;;9.00;;
15383;SDS011;7790;53.022;12.968;2022-08-19T10:05:33;10.97;;;10.07;;
15383;SDS011;7790;53.022;12.968;2022-08-19T10:09:51;10.30;;;9.40;;
15383;SDS011;7790;53.022;12.968;2022-08-19T10:13:52;10.30;;;9.50;;
15383;SDS011;7790;53.022;12.968;2022-08-19T10:17:53;10.10;;;9.20;;
15383;SDS011;7790;53.022;12.968;2022-08-19T10:21:54;11.10;;;9.60;;
15383;SDS011;7790;53.022;12.968;2022-08-19T10:25:55;12.83;;;10.27;;
15383;SDS011;7790;53.022;12.968;2022-08-19T10:30:00;10.77;;;8.93;;
15383;SDS011;7790;53.022;12.968;2022-08-19T10:34:01;10.80;;;9.87;;
15383;SDS011;7790;53.022;12.968;2022-08-19T10:38:02;10.60;;;9.60;;
15383;SDS011;7790;53.022;12.968;2022-08-19T10:42:04;11.07;;;9.97;;
15383;SDS011;7790;53.022;12.968;2022-08-19T10:46:07;10.83;;;9.80;;
15383;SDS011;7790;53.022;12.968;2022-08-19T10:50:09;11.37;;;10.47;;
15383;SDS011;7790;53.022;12.968;2022-08-19T10:54:28;11.00;;;10.10;;
15383;SDS011;7790;53.022;12.968;2022-08-19T10:58:48;11.30;;;10.40;;
15383;SDS011;7790;53.022;12.968;2022-08-19T11:02:49;10.73;;;9.83;;
15383;SDS011;7790;53.022;12.968;2022-08-19T11:06:50;10.40;;;9.60;;
15383;SDS011;7790;53.022;12.968;2022-08-19T11:10:51;12.03;;;11.03;;
15383;SDS011;7790;53.022;12.968;2022-08-19T11:14:55;11.53;;;10.33;;
15383;SDS011;7790;53.022;12.968;2022-08-19T11:18:56;11.57;;;10.67;;
15383;SDS011;7790;53.022;12.968;2022-08-19T11:22:58;10.70;;;9.80;;
15383;SDS011;7790;53.022;12.968;2022-08-19T11:27:01;12.47;;;11.27;;
15383;SDS011;7790;53.022;12.968;2022-08-19T11:31:09;11.23;;;10.27;;
15383;SDS011;7790;53.022;12.968;2022-08-19T11:35:11;10.10;;;9.30;;
15383;SDS011;7790;53.022;12.968;2022-08-19T11:39:14;11.17;;;10.27;;
15383;SDS011;7790;53.022;12.968;2022-08-19T11:43:15;10.33;;;9.47;;
15383;SDS011;7790;53.022;12.968;2022-08-19T11:47:18;10.23;;;9.43;;
15383;SDS011;7790;53.022;12.968;2022-08-19T11:51:20;10.23;;;9.23;;
15383;SDS011;7790;53.022;12.968;2022-08-19T11:55:22;9.37;;;8.57;;
15383;SDS011;7790;53.022;12.968;2022-08-19T11:59:23;10.03;;;9.20;;
15383;SDS011;7790;53.022;12.968;2022-08-19T12:03:26;8.97;;;8.27;;
15383;SDS011;7790;53.022;12.968;2022-08-19T12:07:28;9.37;;;8.67;;
15383;SDS011;7790;53.022;12.968;2022-08-19T12:11:31;8.90;;;8.20;;
15383;SDS011;7790;53.022;12.968;2022-08-19T12:15:36;8.47;;;7.63;;
15383;SDS011;7790;53.022;12.968;2022-08-19T12:19:41;8.87;;;8.13;;
15383;SDS011;7790;53.022;12.968;2022-08-19T12:23:42;8.83;;;8.03;;
15383;SDS011;7790;53.022;12.968;2022-08-19T12:27:45;9.00;;;8.20;;
15383;SDS011;7790;53.022;12.968;2022-08-19T12:31:46;8.57;;;7.93;;
15383;SDS011;7790;53.022;12.968;2022-08-19T12:35:47;8.90;;;8.20;;
15383;SDS011;7790;53.022;12.968;2022-08-19T12:39:48;7.90;;;7.30;;
15383;SDS011;7790;53.022;12.968;2022-08-19T12:43:49;8.60;;;8.00;;
15383;SDS011;7790;53.022;12.968;2022-08-19T12:47:50;8.23;;;7.63;;
15383;SDS011;7790;53.022;12.968;2022-08-19T12:51:53;8.93;;;8.23;;
15383;SDS011;7790;53.022;12.968;2022-08-19T12:55:57;8.57;;;7.93;;
15383;SDS011;7790;53.022;12.968;2022-08-19T13:00:01;9.00;;;8.30;;
15383;SDS011;7790;53.022;12.968;2022-08-19T13:04:03;8.47;;;7.83;;
15383;SDS011;7790;53.022;12.968;2022-08-19T13:08:04;8.87;;;8.17;;
15383;SDS011;7790;53.022;12.968;2022-08-19T13:12:05;8.97;;;8.23;;
15383;SDS011;7790;53.022;12.968;2022-08-19T13:16:09;9.40;;;8.60;;
15383;SDS011;7790;53.022;12.968;2022-08-19T13:20:11;9.13;;;8.43;;
15383;SDS011;7790;53.022;12.968;2022-08-19T13:24:12;9.73;;;8.77;;
15383;SDS011;7790;53.022;12.968;2022-08-19T13:28:13;9.03;;;8.33;;
15383;SDS011;7790;53.022;12.968;2022-08-19T13:32:14;8.70;;;8.00;;
15383;SDS011;7790;53.022;12.968;2022-08-19T13:36:33;9.73;;;8.93;;
15383;SDS011;7790;53.022;12.968;2022-08-19T13:40:35;9.33;;;8.63;;
15383;SDS011;7790;53.022;12.968;2022-08-19T13:44:37;10.07;;;9.27;;
15383;SDS011;7790;53.022;12.968;2022-08-19T13:48:38;9.83;;;9.03;;
15383;SDS011;7790;53.022;12.968;2022-08-19T13:52:39;11.20;;;10.30;;
15383;SDS011;7790;53.022;12.968;2022-08-19T13:56:41;9.80;;;9.10;;
15383;SDS011;7790;53.022;12.968;2022-08-19T14:00:44;10.87;;;10.07;;
15383;SDS011;7790;53.022;12.968;2022-08-19T14:04:46;10.97;;;10.10;;
15383;SDS011;7790;53.022;12.968;2022-08-19T14:08:47;9.87;;;9.17;;
15383;SDS011;7790;53.022;12.968;2022-08-19T14:12:48;10.90;;;10.10;;
15383;SDS011;7790;53.022;12.968;2022-08-19T14:16:52;11.00;;;10.03;;
15383;SDS011;7790;53.022;12.968;2022-08-19T14:20:53;10.57;;;9.67;;
15383;SDS011;7790;53.022;12.968;2022-08-19T14:24:54;11.63;;;10.63;;
15383;SDS011;7790;53.022;12.968;2022-08-19T14:28:56;11.27;;;10.37;;
15383;SDS011;7790;53.022;12.968;2022-08-19T14:32:58;11.50;;;10.70;;
15383;SDS011;7790;53.022;12.968;2022-08-19T14:37:00;12.30;;;11.23;;
15383;SDS011;7790;53.022;12.968;2022-08-19T14:41:19;12.40;;;11.40;;
15383;SDS011;7790;53.022;12.968;2022-08-19T14:45:22;12.00;;;11.10;;
15383;SDS011;7790;53.022;12.968;2022-08-19T14:49:22;11.30;;;10.47;;
15383;SDS011;7790;53.022;12.968;2022-08-19T14:53:23;12.10;;;10.83;;
15383;SDS011;7790;53.022;12.968;2022-08-19T14:57:24;11.70;;;10.80;;
15383;SDS011;7790;53.022;12.968;2022-08-19T15:01:25;11.47;;;10.57;;
15383;SDS011;7790;53.022;12.968;2022-08-19T15:05:26;11.87;;;10.77;;
15383;SDS011;7790;53.022;12.968;2022-08-19T15:09:27;12.50;;;11.40;;
15383;SDS011;7790;53.022;12.968;2022-08-19T15:13:28;11.70;;;10.70;;
15383;SDS011;7790;53.022;12.968;2022-08-19T15:17:30;12.13;;;11.23;;
15383;SDS011;7790;53.022;12.968;2022-08-19T15:21:31;12.87;;;11.87;;
15383;SDS011;7790;53.022;12.968;2022-08-19T15:25:32;12.37;;;11.27;;
15383;SDS011;7790;53.022;12.968;2022-08-19T15:29:34;12.03;;;11.13;;
15383;SDS011;7790;53.022;12.968;2022-08-19T15:33:35;11.73;;;10.37;;
15383;SDS011;7790;53.022;12.968;2022-08-19T15:37:37;12.03;;;11.10;;
15383;SDS011;7790;53.022;12.968;2022-08-19T15:41:38;12.37;;;11.20;;
15383;SDS011;7790;53.022;12.968;2022-08-19T15:45:41;11.87;;;10.97;;
15383;SDS011;7790;53.022;12.968;2022-08-19T15:49:44;12.57;;;11.47;;
15383;SDS011;7790;53.022;12.968;2022-08-19T15:53:45;12.17;;;11.17;;
15383;SDS011;7790;53.022;12.968;2022-08-19T15:57:47;12.20;;;11.20;;
15383;SDS011;7790;53.022;12.968;2022-08-19T16:02:07;10.60;;;9.77;;
15383;SDS011;7790;53.022;12.968;2022-08-19T16:06:27;10.57;;;9.77;;
15383;SDS011;7790;53.022;12.968;2022-08-19T16:10:28;9.97;;;9.17;;
15383;SDS011;7790;53.022;12.968;2022-08-19T16:14:30;8.37;;;7.57;;
15383;SDS011;7790;53.022;12.968;2022-08-19T16:18:32;7.50;;;6.90;;
15383;SDS011;7790;53.022;12.968;2022-08-19T16:22:37;6.90;;;6.40;;
15383;SDS011;7790;53.022;12.968;2022-08-19T16:26:40;6.50;;;6.00;;
15383;SDS011;7790;53.022;12.968;2022-08-19T16:30:41;6.20;;;5.50;;
15383;SDS011;7790;53.022;12.968;2022-08-19T16:34:42;5.20;;;4.90;;
15383;SDS011;7790;53.022;12.968;2022-08-19T16:38:43;5.30;;;5.00;;
15383;SDS011;7790;53.022;12.968;2022-08-19T16:42:47;4.97;;;4.63;;
15383;SDS011;7790;53.022;12.968;2022-08-19T16:46:48;5.00;;;4.60;;
15383;SDS011;7790;53.022;12.968;2022-08-19T16:50:50;4.50;;;4.17;;
15383;SDS011;7790;53.022;12.968;2022-08-19T16:54:52;4.33;;;4.03;;
15383;SDS011;7790;53.022;12.968;2022-08-19T16:58:53;4.10;;;3.90;;
15383;SDS011;7790;53.022;12.968;2022-08-19T17:02:55;4.40;;;3.90;;
15383;SDS011;7790;53.022;12.968;2022-08-19T17:06:56;4.40;;;4.10;;
15383;SDS011;7790;53.022;12.968;2022-08-19T17:10:57;3.93;;;3.73;;
15383;SDS011;7790;53.022;12.968;2022-08-19T17:15:02;3.87;;;3.67;;
15383;SDS011;7790;53.022;12.968;2022-08-19T17:19:06;4.33;;;4.00;;
15383;SDS011;7790;53.022;12.968;2022-08-19T17:23:07;4.70;;;4.40;;
15383;SDS011;7790;53.022;12.968;2022-08-19T17:27:09;4.73;;;4.43;;
15383;SDS011;7790;53.022;12.968;2022-08-19T17:31:11;4.53;;;4.23;;
15383;SDS011;7790;53.022;12.968;2022-08-19T17:35:12;4.60;;;4.30;;
15383;SDS011;7790;53.022;12.968;2022-08-19T17:39:20;5.50;;;5.10;;
15383;SDS011;7790;53.022;12.968;2022-08-19T17:43:21;5.40;;;4.90;;
15383;SDS011;7790;53.022;12.968;2022-08-19T17:47:22;5.87;;;5.37;;
15383;SDS011;7790;53.022;12.968;2022-08-19T17:51:25;5.53;;;5.13;;
15383;SDS011;7790;53.022;12.968;2022-08-19T17:55:39;5.77;;;5.27;;
15383;SDS011;7790;53.022;12.968;2022-08-19T17:59:40;5.10;;;4.80;;
15383;SDS011;7790;53.022;12.968;2022-08-19T18:03:41;6.00;;;5.50;;
15383;SDS011;7790;53.022;12.968;2022-08-19T18:07:42;6.30;;;5.80;;
15383;SDS011;7790;53.022;12.968;2022-08-19T18:11:43;5.90;;;5.40;;
15383;SDS011;7790;53.022;12.968;2022-08-19T18:15:44;6.63;;;6.03;;
15383;SDS011;7790;53.022;12.968;2022-08-19T18:19:46;6.97;;;6.37;;
15383;SDS011;7790;53.022;12.968;2022-08-19T18:23:47;6.97;;;6.47;;
15383;SDS011;7790;53.022;12.968;2022-08-19T18:27:49;7.33;;;6.63;;
15383;SDS011;7790;53.022;12.968;2022-08-19T18:31:54;6.80;;;6.20;;
15383;SDS011;7790;53.022;12.968;2022-08-19T18:35:56;7.93;;;7.20;;
15383;SDS011;7790;53.022;12.968;2022-08-19T18:39:57;8.43;;;7.73;;
15383;SDS011;7790;53.022;12.968;2022-08-19T18:44:17;8.13;;;7.53;;
15383;SDS011;7790;53.022;12.968;2022-08-19T18:48:36;8.40;;;7.80;;
15383;SDS011;7790;53.022;12.968;2022-08-19T18:52:56;7.47;;;6.97;;
15383;SDS011;7790;53.022;12.968;2022-08-19T18:56:57;8.00;;;7.40;;
15383;SDS011;7790;53.022;12.968;2022-08-19T19:00:59;8.27;;;7.60;;
15383;SDS011;7790;53.022;12.968;2022-08-19T19:05:08;8.20;;;7.60;;
15383;SDS011;7790;53.022;12.968;2022-08-19T19:09:14;7.83;;;7.20;;
15383;SDS011;7790;53.022;12.968;2022-08-19T19:13:17;7.60;;;6.90;;
15383;SDS011;7790;53.022;12.968;2022-08-19T19:17:17;7.17;;;6.67;;
15383;SDS011;7790;53.022;12.968;2022-08-19T19:21:25;7.50;;;6.80;;
15383;SDS011;7790;53.022;12.968;2022-08-19T19:25:27;6.87;;;6.37;;
15383;SDS011;7790;53.022;12.968;2022-08-19T19:29:28;6.93;;;6.33;;
15383;SDS011;7790;53.022;12.968;2022-08-19T19:33:28;6.90;;;6.40;;
15383;SDS011;7790;53.022;12.968;2022-08-19T19:37:29;7.17;;;6.67;;
15383;SDS011;7790;53.022;12.968;2022-08-19T19:41:30;7.23;;;6.67;;
15383;SDS011;7790;53.022;12.968;2022-08-19T19:45:32;10.00;;;6.73;;
15383;SDS011;7790;53.022;12.968;2022-08-19T19:49:33;6.97;;;6.47;;
15383;SDS011;7790;53.022;12.968;2022-08-19T19:53:34;7.83;;;7.27;;
15383;SDS011;7790;53.022;12.968;2022-08-19T19:57:35;8.07;;;7.37;;
15383;SDS011;7790;53.022;12.968;2022-08-19T20:01:39;7.30;;;6.80;;
15383;SDS011;7790;53.022;12.968;2022-08-19T20:05:45;7.87;;;7.27;;
15383;SDS011;7790;53.022;12.968;2022-08-19T20:09:47;8.07;;;7.47;;
15383;SDS011;7790;53.022;12.968;2022-08-19T20:13:48;8.00;;;7.40;;
15383;SDS011;7790;53.022;12.968;2022-08-19T20:17:49;8.53;;;7.80;;
15383;SDS011;7790;53.022;12.968;2022-08-19T20:21:50;10.70;;;9.70;;
15383;SDS011;7790;53.022;12.968;2022-08-19T20:25:53;10.33;;;9.43;;
15383;SDS011;7790;53.022;12.968;2022-08-19T20:29:54;11.83;;;10.63;;
15383;SDS011;7790;53.022;12.968;2022-08-19T20:33:55;12.90;;;11.80;;
15383;SDS011;7790;53.022;12.968;2022-08-19T20:37:56;13.23;;;12.03;;
15383;SDS011;7790;53.022;12.968;2022-08-19T20:41:57;14.13;;;12.83;;
15383;SDS011;7790;53.022;12.968;2022-08-19T20:45:59;14.57;;;13.37;;
15383;SDS011;7790;53.022;12.968;2022-08-19T20:50:03;14.03;;;12.83;;
15383;SDS011;7790;53.022;12.968;2022-08-19T20:54:05;13.40;;;12.40;;
15383;SDS011;7790;53.022;12.968;2022-08-19T20:58:06;14.53;;;13.27;;
15383;SDS011;7790;53.022;12.968;2022-08-19T21:02:09;13.63;;;12.53;;
15383;SDS011;7790;53.022;12.968;2022-08-19T21:06:11;14.20;;;13.00;;
15383;SDS011;7790;53.022;12.968;2022-08-19T21:10:15;14.40;;;13.00;;
15383;SDS011;7790;53.022;12.968;2022-08-19T21:14:17;14.43;;;13.10;;
15383;SDS011;7790;53.022;12.968;2022-08-19T21:18:19;13.47;;;12.27;;
15383;SDS011;7790;53.022;12.968;2022-08-19T21:22:21;13.90;;;12.80;;
15383;SDS011;7790;53.022;12.968;2022-08-19T21:26:22;14.97;;;13.77;;
15383;SDS011;7790;53.022;12.968;2022-08-19T21:30:23;14.60;;;13.40;;
15383;SDS011;7790;53.022;12.968;2022-08-19T21:34:24;13.90;;;12.57;;
15383;SDS011;7790;53.022;12.968;2022-08-19T21:38:25;14.13;;;12.83;;
15383;SDS011;7790;53.022;12.968;2022-08-19T21:42:26;14.27;;;12.97;;
15383;SDS011;7790;53.022;12.968;2022-08-19T21:46:27;13.70;;;12.27;;
15383;SDS011;7790;53.022;12.968;2022-08-19T21:50:28;13.27;;;12.07;;
15383;SDS011;7790;53.022;12.968;2022-08-19T21:54:31;14.53;;;13.23;;
15383;SDS011;7790;53.022;12.968;2022-08-19T21:58:32;14.40;;;13.20;;
15383;SDS011;7790;53.022;12.968;2022-08-19T22:02:36;14.87;;;13.47;;
15383;SDS011;7790;53.022;12.968;2022-08-19T22:06:37;14.23;;;13.03;;
15383;SDS011;7790;53.022;12.968;2022-08-19T22:10:38;14.33;;;12.97;;
15383;SDS011;7790;53.022;12.968;2022-08-19T22:14:39;14.17;;;12.83;;
15383;SDS011;7790;53.022;12.968;2022-08-19T22:18:40;13.43;;;12.30;;
15383;SDS011;7790;53.022;12.968;2022-08-19T22:22:45;13.63;;;12.50;;
15383;SDS011;7790;53.022;12.968;2022-08-19T22:26:49;13.20;;;11.90;;
15383;SDS011;7790;53.022;12.968;2022-08-19T22:30:50;13.60;;;12.40;;
15383;SDS011;7790;53.022;12.968;2022-08-19T22:34:51;13.70;;;12.60;;
15383;SDS011;7790;53.022;12.968;2022-08-19T22:38:52;14.23;;;13.03;;
15383;SDS011;7790;53.022;12.968;2022-08-19T22:42:56;13.90;;;12.70;;
15383;SDS011;7790;53.022;12.968;2022-08-19T22:47:01;13.23;;;12.13;;
15383;SDS011;7790;53.022;12.968;2022-08-19T22:51:02;12.83;;;11.63;;
15383;SDS011;7790;53.022;12.968;2022-08-19T22:55:22;13.27;;;12.17;;
15383;SDS011;7790;53.022;12.968;2022-08-19T22:59:23;14.37;;;12.97;;
15383;SDS011;7790;53.022;12.968;2022-08-19T23:03:24;13.60;;;12.50;;
15383;SDS011;7790;53.022;12.968;2022-08-19T23:07:25;14.83;;;13.50;;
15383;SDS011;7790;53.022;12.968;2022-08-19T23:11:26;14.03;;;12.63;;
15383;SDS011;7790;53.022;12.968;2022-08-19T23:15:29;13.70;;;12.60;;
15383;SDS011;7790;53.022;12.968;2022-08-19T23:19:31;12.97;;;11.87;;
15383;SDS011;7790;53.022;12.968;2022-08-19T23:23:32;13.23;;;12.13;;
15383;SDS011;7790;53.022;12.968;2022-08-19T23:27:33;13.77;;;12.50;;
15383;SDS011;7790;53.022;12.968;2022-08-19T23:31:52;14.53;;;13.20;;
15383;SDS011;7790;53.022;12.968;2022-08-19T23:36:05;15.53;;;14.13;;
15383;SDS011;7790;53.022;12.968;2022-08-19T23:40:08;14.77;;;13.57;;
15383;SDS011;7790;53.022;12.968;2022-08-19T23:44:10;14.73;;;13.27;;
15383;SDS011;7790;53.022;12.968;2022-08-19T23:48:12;14.63;;;13.43;;
15383;SDS011;7790;53.022;12.968;2022-08-19T23:52:12;15.50;;;14.00;;
15383;SDS011;7790;53.022;12.968;2022-08-19T23:56:13;14.67;;;13.27;;
